createdAt,value
2018-07-01T00:01:11.986Z,18.00
2018-07-01T00:03:16.214Z,18.00
2018-07-01T00:05:20.860Z,18.00
2018-07-01T00:07:25.210Z,17.80
2018-07-01T00:09:29.193Z,17.70
2018-07-01T00:11:33.510Z,17.70
2018-07-01T00:13:37.824Z,17.80
2018-07-01T00:15:41.982Z,17.80
2018-07-01T00:17:45.964Z,17.80
2018-07-01T00:19:50.195Z,17.90
2018-07-01T00:21:54.878Z,17.80
2018-07-01T00:23:58.916Z,17.70
2018-07-01T00:26:03.046Z,17.50
2018-07-01T00:28:07.961Z,17.60
2018-07-01T00:30:11.922Z,17.60
2018-07-01T00:32:15.907Z,17.50
2018-07-01T00:34:20.141Z,17.50
2018-07-01T00:36:24.733Z,17.40
2018-07-01T00:38:29.321Z,17.20
2018-07-01T00:40:34.004Z,17.30
2018-07-01T00:42:37.937Z,17.30
2018-07-01T00:44:42.178Z,17.20
2018-07-01T00:46:46.540Z,17.10
2018-07-01T00:48:50.861Z,17.00
2018-07-01T00:50:55.165Z,16.90
2018-07-01T00:52:59.398Z,17.00
2018-07-01T00:55:03.799Z,16.90
2018-07-01T00:57:08.370Z,17.10
2018-07-01T00:59:12.965Z,17.00
2018-07-01T01:01:17.198Z,17.00
2018-07-01T01:03:21.573Z,17.10
2018-07-01T01:05:25.517Z,17.10
2018-07-01T01:07:30.048Z,17.00
2018-07-01T01:09:34.018Z,16.90
2018-07-01T01:11:38.276Z,16.90
2018-07-01T01:13:42.570Z,16.80
2018-07-01T01:15:46.837Z,16.90
2018-07-01T01:17:51.146Z,17.00
2018-07-01T01:19:55.114Z,17.00
2018-07-01T01:21:59.686Z,16.80
2018-07-01T01:24:03.666Z,16.90
2018-07-01T01:26:07.924Z,16.70
2018-07-01T01:28:12.157Z,16.50
2018-07-01T01:30:16.402Z,16.40
2018-07-01T01:32:20.762Z,16.20
2018-07-01T01:34:25.093Z,16.20
2018-07-01T01:36:31.568Z,16.40
2018-07-01T01:38:37.802Z,16.50
2018-07-01T01:40:45.947Z,16.40
2018-07-01T01:42:58.885Z,16.30
2018-07-01T01:45:07.745Z,16.30
2018-07-01T01:47:16.686Z,16.20
2018-07-01T01:49:29.139Z,16.30
2018-07-01T01:51:40.450Z,16.20
2018-07-01T01:54:23.898Z,16.10
2018-07-01T01:56:35.793Z,16.20
2018-07-01T01:58:43.825Z,16.40
2018-07-01T02:01:27.010Z,16.40
2018-07-01T02:03:36.957Z,16.40
2018-07-01T02:06:16.672Z,16.40
2018-07-01T02:08:28.102Z,16.30
2018-07-01T02:10:32.568Z,16.30
2018-07-01T02:12:37.478Z,16.20
2018-07-01T02:14:46.233Z,16.30
2018-07-01T02:16:53.474Z,16.30
2018-07-01T02:18:57.458Z,16.20
2018-07-01T02:21:02.020Z,16.20
2018-07-01T02:23:12.864Z,16.10
2018-07-01T02:25:21.390Z,16.10
2018-07-01T02:27:25.620Z,16.00
2018-07-01T02:29:30.114Z,16.00
2018-07-01T02:31:34.711Z,16.10
2018-07-01T02:33:39.470Z,16.00
2018-07-01T02:35:43.727Z,16.00
2018-07-01T02:37:48.335Z,16.00
2018-07-01T02:39:52.633Z,15.90
2018-07-01T02:41:56.895Z,15.90
2018-07-01T02:44:01.130Z,15.90
2018-07-01T02:46:05.369Z,15.90
2018-07-01T02:48:09.993Z,15.80
2018-07-01T02:50:14.599Z,15.90
2018-07-01T02:52:18.918Z,15.80
2018-07-01T02:54:23.202Z,15.70
2018-07-01T02:56:27.783Z,15.60
2018-07-01T02:58:32.710Z,15.60
2018-07-01T03:00:36.937Z,15.60
2018-07-01T03:02:41.218Z,15.60
2018-07-01T03:04:45.461Z,15.60
2018-07-01T03:06:49.715Z,15.60
2018-07-01T03:08:54.305Z,15.50
2018-07-01T03:10:58.282Z,15.60
2018-07-01T03:13:02.502Z,15.50
2018-07-01T03:15:07.410Z,15.60
2018-07-01T03:17:12.009Z,15.70
2018-07-01T03:19:15.957Z,15.60
2018-07-01T03:21:20.220Z,15.50
2018-07-01T03:23:24.493Z,15.50
2018-07-01T03:25:28.778Z,15.50
2018-07-01T03:27:33.048Z,15.40
2018-07-01T03:29:37.937Z,15.40
2018-07-01T03:31:42.433Z,15.50
2018-07-01T03:33:47.006Z,15.50
2018-07-01T03:35:51.590Z,15.50
2018-07-01T03:37:55.853Z,15.50
2018-07-01T03:40:06.159Z,15.50
2018-07-01T03:42:10.905Z,15.50
2018-07-01T03:44:15.129Z,15.50
2018-07-01T03:46:19.770Z,15.50
2018-07-01T03:48:24.183Z,15.50
2018-07-01T03:52:32.661Z,15.50
2018-07-01T03:54:36.622Z,15.50
2018-07-01T03:56:40.893Z,15.50
2018-07-01T04:00:49.130Z,15.60
2018-07-01T04:02:53.742Z,15.50
2018-07-01T04:04:58.051Z,15.60
2018-07-01T04:07:02.685Z,15.60
2018-07-01T04:09:10.353Z,15.60
2018-07-01T04:11:14.792Z,15.70
2018-07-01T04:13:19.022Z,15.50
2018-07-01T04:15:23.286Z,15.60
2018-07-01T04:17:27.546Z,15.70
2018-07-01T04:19:35.306Z,15.70
2018-07-01T04:21:39.876Z,15.80
2018-07-01T04:23:44.586Z,15.80
2018-07-01T04:25:48.778Z,15.90
2018-07-01T04:27:53.015Z,15.90
2018-07-01T04:29:57.252Z,15.90
2018-07-01T04:32:01.823Z,15.90
2018-07-01T04:34:06.485Z,15.90
2018-07-01T04:36:10.764Z,15.90
2018-07-01T04:38:14.994Z,15.80
2018-07-01T04:40:19.406Z,15.80
2018-07-01T04:42:23.333Z,15.80
2018-07-01T04:44:27.931Z,15.70
2018-07-01T04:46:32.194Z,15.70
2018-07-01T04:48:36.462Z,15.80
2018-07-01T04:50:40.746Z,15.90
2018-07-01T04:52:45.315Z,15.90
2018-07-01T04:54:49.553Z,15.90
2018-07-01T04:56:54.177Z,15.90
2018-07-01T04:58:58.335Z,15.90
2018-07-01T05:01:02.908Z,15.90
2018-07-01T05:03:07.397Z,15.90
2018-07-01T05:05:11.742Z,16.00
2018-07-01T05:07:16.013Z,15.90
2018-07-01T05:09:19.957Z,15.90
2018-07-01T05:11:24.565Z,16.00
2018-07-01T05:13:28.801Z,16.10
2018-07-01T05:15:33.417Z,16.10
2018-07-01T05:19:41.614Z,16.20
2018-07-01T05:21:45.886Z,16.00
2018-07-01T05:23:50.303Z,16.10
2018-07-01T05:25:54.620Z,16.10
2018-07-01T05:27:58.887Z,16.00
2018-07-01T05:30:03.619Z,16.00
2018-07-01T05:32:07.875Z,16.10
2018-07-01T05:34:12.843Z,16.10
2018-07-01T05:36:17.111Z,16.10
2018-07-01T05:38:21.409Z,16.20
2018-07-01T05:40:25.726Z,16.30
2018-07-01T05:42:29.982Z,16.40
2018-07-01T05:44:34.216Z,16.40
2018-07-01T05:46:38.513Z,16.40
2018-07-01T05:48:43.113Z,16.40
2018-07-01T05:50:47.413Z,16.20
2018-07-01T05:52:51.696Z,16.10
2018-07-01T05:54:55.671Z,16.20
2018-07-01T05:57:00.278Z,16.10
2018-07-01T05:59:04.711Z,16.20
2018-07-01T06:01:08.994Z,16.30
2018-07-01T06:03:13.222Z,16.40
2018-07-01T06:05:18.171Z,16.40
2018-07-01T06:07:22.457Z,16.40
2018-07-01T06:09:27.059Z,16.60
2018-07-01T06:11:32.214Z,16.60
2018-07-01T06:13:37.183Z,16.60
2018-07-01T06:15:42.087Z,16.80
2018-07-01T06:17:46.087Z,16.90
2018-07-01T06:19:50.685Z,17.00
2018-07-01T06:21:55.698Z,17.10
2018-07-01T06:24:00.070Z,17.00
2018-07-01T06:26:04.041Z,17.00
2018-07-01T06:28:08.706Z,17.00
2018-07-01T06:30:13.066Z,17.00
2018-07-01T06:32:17.325Z,17.00
2018-07-01T06:34:21.594Z,17.00
2018-07-01T06:36:26.058Z,17.10
2018-07-01T06:38:30.358Z,17.10
2018-07-01T06:40:37.978Z,17.10
2018-07-01T06:42:42.324Z,17.20
2018-07-01T06:44:46.570Z,17.20
2018-07-01T06:46:50.803Z,17.20
2018-07-01T06:48:55.090Z,17.30
2018-07-01T06:50:59.381Z,17.30
2018-07-01T06:53:03.657Z,17.30
2018-07-01T06:55:07.907Z,17.40
2018-07-01T06:57:12.505Z,17.50
2018-07-01T06:59:17.097Z,17.50
2018-07-01T07:01:21.357Z,17.50
2018-07-01T07:03:25.658Z,17.60
2018-07-01T07:05:30.110Z,17.60
2018-07-01T07:07:34.402Z,17.70
2018-07-01T07:09:38.629Z,17.70
2018-07-01T07:11:42.870Z,17.60
2018-07-01T07:13:47.137Z,17.60
2018-07-01T07:15:52.226Z,17.60
2018-07-01T07:17:56.491Z,17.50
2018-07-01T07:20:01.265Z,17.40
2018-07-01T07:22:05.889Z,17.40
2018-07-01T07:24:09.977Z,17.40
2018-07-01T07:28:18.465Z,17.80
2018-07-01T07:30:22.837Z,17.90
2018-07-01T07:32:26.809Z,17.90
2018-07-01T07:34:30.775Z,17.90
2018-07-01T07:36:35.365Z,18.00
2018-07-01T07:40:43.466Z,18.10
2018-07-01T07:44:52.452Z,18.30
2018-07-01T07:46:57.227Z,18.30
2018-07-01T07:49:01.195Z,18.40
2018-07-01T07:51:05.594Z,18.50
2018-07-01T07:53:10.209Z,18.50
2018-07-01T07:55:14.558Z,18.50
2018-07-01T07:57:18.814Z,18.50
2018-07-01T07:59:23.329Z,18.60
2018-07-01T08:03:31.815Z,18.70
2018-07-01T08:05:36.096Z,18.70
2018-07-01T08:07:40.389Z,18.70
2018-07-01T08:09:44.694Z,18.70
2018-07-01T08:11:49.602Z,18.70
2018-07-01T08:13:54.180Z,18.70
2018-07-01T08:15:58.797Z,18.70
2018-07-01T08:18:03.115Z,18.80
2018-07-01T08:20:07.407Z,18.80
2018-07-01T08:22:11.926Z,18.90
2018-07-01T08:24:16.192Z,18.90
2018-07-01T08:26:20.434Z,18.90
2018-07-01T08:28:25.046Z,19.00
2018-07-01T08:32:33.505Z,19.00
2018-07-01T08:34:37.843Z,19.00
2018-07-01T08:36:42.342Z,19.10
2018-07-01T08:38:46.948Z,19.20
2018-07-01T08:40:51.318Z,19.30
2018-07-01T08:42:55.605Z,19.30
2018-07-01T08:45:00.943Z,19.30
2018-07-01T08:47:05.177Z,19.20
2018-07-01T08:49:09.609Z,19.20
2018-07-01T08:51:14.506Z,19.30
2018-07-01T08:53:18.774Z,19.30
2018-07-01T08:55:23.395Z,19.40
2018-07-01T08:57:27.979Z,19.40
2018-07-01T08:59:32.128Z,19.50
2018-07-01T09:01:36.789Z,19.50
2018-07-01T09:05:45.238Z,19.60
2018-07-01T09:07:49.555Z,19.60
2018-07-01T09:09:54.525Z,19.60
2018-07-01T09:11:59.115Z,19.70
2018-07-01T09:14:03.358Z,19.80
2018-07-01T09:16:07.701Z,19.80
2018-07-01T09:18:11.923Z,19.70
2018-07-01T09:20:16.539Z,19.80
2018-07-01T09:22:21.514Z,19.80
2018-07-01T09:24:26.122Z,19.90
2018-07-01T09:26:30.349Z,19.90
2018-07-01T09:28:34.621Z,20.00
2018-07-01T09:30:39.197Z,20.00
2018-07-01T09:32:43.446Z,20.10
2018-07-01T09:34:47.697Z,20.20
2018-07-01T09:38:56.356Z,20.20
2018-07-01T09:41:00.667Z,20.10
2018-07-01T09:43:05.346Z,20.20
2018-07-01T09:45:09.941Z,20.20
2018-07-01T09:47:14.561Z,20.20
2018-07-01T09:49:18.755Z,20.20
2018-07-01T09:51:23.007Z,20.30
2018-07-01T09:53:27.349Z,20.30
2018-07-01T09:57:35.724Z,20.40
2018-07-01T09:59:40.577Z,20.40
2018-07-01T10:01:44.813Z,20.30
2018-07-01T10:03:49.389Z,20.40
2018-07-01T10:05:53.977Z,20.40
2018-07-01T10:07:58.546Z,20.50
2018-07-01T10:10:02.854Z,20.60
2018-07-01T10:12:07.488Z,20.60
2018-07-01T10:14:11.872Z,20.60
2018-07-01T10:16:17.165Z,20.60
2018-07-01T10:18:21.817Z,20.70
2018-07-01T10:20:26.590Z,20.80
2018-07-01T10:22:31.013Z,21.10
2018-07-01T10:24:35.333Z,21.10
2018-07-01T10:26:39.896Z,21.10
2018-07-01T10:28:58.856Z,21.00
2018-07-01T10:31:03.534Z,21.00
2018-07-01T10:33:07.942Z,21.20
2018-07-01T10:35:12.549Z,21.20
2018-07-01T10:37:16.781Z,21.30
2018-07-01T10:39:21.045Z,21.20
2018-07-01T10:41:25.633Z,21.20
2018-07-01T10:43:29.868Z,21.20
2018-07-01T10:45:34.267Z,21.40
2018-07-01T10:47:38.562Z,21.40
2018-07-01T10:49:42.941Z,21.20
2018-07-01T10:51:47.254Z,21.30
2018-07-01T10:53:51.981Z,21.30
2018-07-01T10:55:56.270Z,21.30
2018-07-01T10:58:00.551Z,21.30
2018-07-01T11:00:05.483Z,21.40
2018-07-01T11:02:09.745Z,21.50
2018-07-01T11:04:14.314Z,21.60
2018-07-01T11:06:18.716Z,21.70
2018-07-01T11:08:23.081Z,22.00
2018-07-01T11:10:27.669Z,22.00
2018-07-01T11:12:31.886Z,21.90
2018-07-01T11:14:36.585Z,21.90
2018-07-01T11:16:41.105Z,22.00
2018-07-01T11:18:45.713Z,22.10
2018-07-01T11:20:50.322Z,22.10
2018-07-01T11:22:54.593Z,22.20
2018-07-01T11:24:58.569Z,22.20
2018-07-01T11:27:03.029Z,22.10
2018-07-01T11:29:07.324Z,21.80
2018-07-01T11:31:13.163Z,22.00
2018-07-01T11:33:18.026Z,22.20
2018-07-01T11:35:22.249Z,22.60
2018-07-01T11:37:26.858Z,22.80
2018-07-01T11:39:31.114Z,23.10
2018-07-01T11:41:35.813Z,23.50
2018-07-01T11:43:40.414Z,24.10
2018-07-01T11:45:44.837Z,24.30
2018-07-01T11:47:49.469Z,24.70
2018-07-01T11:49:53.702Z,25.10
2018-07-01T11:51:57.941Z,25.50
2018-07-01T11:54:01.895Z,25.60
2018-07-01T11:56:06.119Z,25.60
2018-07-01T11:58:10.414Z,26.20
2018-07-01T12:00:15.211Z,26.40
2018-07-01T12:02:20.214Z,25.90
2018-07-01T12:04:25.669Z,25.80
2018-07-01T12:06:30.482Z,26.30
2018-07-01T12:08:35.281Z,26.50
2018-07-01T12:10:40.392Z,26.40
2018-07-01T12:12:45.373Z,27.00
2018-07-01T12:14:50.730Z,27.40
2018-07-01T12:16:55.505Z,27.30
2018-07-01T12:19:00.319Z,26.70
2018-07-01T12:21:05.182Z,26.00
2018-07-01T12:23:09.389Z,26.30
2018-07-01T12:25:13.823Z,27.20
2018-07-01T12:29:22.838Z,26.00
2018-07-01T12:31:27.950Z,25.40
2018-07-01T12:33:32.750Z,25.70
2018-07-01T12:35:37.533Z,26.00
2018-07-01T12:37:42.636Z,26.50
2018-07-01T12:39:48.091Z,27.20
2018-07-01T12:41:53.433Z,27.60
2018-07-01T12:43:58.215Z,28.40
2018-07-01T12:46:02.502Z,28.60
2018-07-01T12:48:07.046Z,29.00
2018-07-01T12:52:15.709Z,28.30
2018-07-01T12:54:20.193Z,28.50
2018-07-01T12:56:24.605Z,28.20
2018-07-01T12:58:29.653Z,27.80
2018-07-01T13:00:34.451Z,27.30
2018-07-01T13:02:39.282Z,27.50
2018-07-01T13:04:44.403Z,28.10
2018-07-01T13:06:49.866Z,28.50
2018-07-01T13:08:54.741Z,27.90
2018-07-01T13:10:59.930Z,27.70
2018-07-01T13:13:04.921Z,27.20
2018-07-01T13:15:09.433Z,27.30
2018-07-01T13:17:14.235Z,28.50
2018-07-01T13:19:18.473Z,29.50
2018-07-01T13:21:23.610Z,29.40
2018-07-01T13:23:28.845Z,29.50
2018-07-01T13:27:37.317Z,28.50
2018-07-01T13:29:41.565Z,28.70
2018-07-01T13:31:45.817Z,29.10
2018-07-01T13:33:50.254Z,29.40
2018-07-01T13:35:54.520Z,29.60
2018-07-01T13:37:59.326Z,29.40
2018-07-01T13:40:03.877Z,29.20
2018-07-01T13:42:08.130Z,29.20
2018-07-01T13:44:12.707Z,29.60
2018-07-01T13:46:17.285Z,29.40
2018-07-01T13:48:21.570Z,29.50
2018-07-01T13:50:26.145Z,29.50
2018-07-01T13:54:34.028Z,29.30
2018-07-01T13:56:38.449Z,29.50
2018-07-01T13:58:42.716Z,29.10
2018-07-01T14:00:47.495Z,29.60
2018-07-01T14:02:52.417Z,29.20
2018-07-01T14:04:57.249Z,28.50
2018-07-01T14:07:02.024Z,28.00
2018-07-01T14:09:09.869Z,28.10
2018-07-01T14:11:14.647Z,28.70
2018-07-01T14:13:19.636Z,29.00
2018-07-01T14:15:24.431Z,29.20
2018-07-01T14:17:29.939Z,29.70
2018-07-01T14:19:34.883Z,29.40
2018-07-01T14:21:39.753Z,28.80
2018-07-01T14:23:44.546Z,28.50
2018-07-01T14:25:49.846Z,28.60
2018-07-01T14:27:54.724Z,29.40
2018-07-01T14:32:04.277Z,29.60
2018-07-01T14:34:08.822Z,30.10
2018-07-01T14:36:13.711Z,30.40
2018-07-01T14:38:18.830Z,30.60
2018-07-01T14:40:23.633Z,29.80
2018-07-01T14:42:28.739Z,28.90
2018-07-01T14:44:33.849Z,28.70
2018-07-01T14:48:43.805Z,29.10
2018-07-01T14:50:48.027Z,28.60
2018-07-01T14:52:53.157Z,28.80
2018-07-01T14:54:57.780Z,29.00
2018-07-01T14:57:02.727Z,28.40
2018-07-01T14:59:07.350Z,28.40
2018-07-01T15:01:11.661Z,28.70
2018-07-01T15:03:17.712Z,29.40
2018-07-01T15:05:22.751Z,29.50
2018-07-01T15:07:27.318Z,29.70
2018-07-01T15:09:31.886Z,30.10
2018-07-01T15:11:36.661Z,29.60
2018-07-01T15:13:41.479Z,29.70
2018-07-01T15:15:46.061Z,30.30
2018-07-01T15:17:50.981Z,30.00
2018-07-01T15:19:55.757Z,30.70
2018-07-01T15:22:00.616Z,30.50
2018-07-01T15:24:05.545Z,30.90
2018-07-01T15:26:10.666Z,30.80
2018-07-01T15:28:15.822Z,29.80
2018-07-01T15:30:20.723Z,28.50
2018-07-01T15:32:25.024Z,29.10
2018-07-01T15:34:29.847Z,29.40
2018-07-01T15:36:34.953Z,30.20
2018-07-01T15:38:39.190Z,29.20
2018-07-01T15:40:44.325Z,29.30
2018-07-01T15:42:48.644Z,30.30
2018-07-01T15:44:53.849Z,30.60
2018-07-01T15:46:59.006Z,30.90
2018-07-01T15:49:04.150Z,31.50
2018-07-01T15:51:08.937Z,31.10
2018-07-01T15:53:14.048Z,31.00
2018-07-01T15:55:19.154Z,31.10
2018-07-01T15:57:24.070Z,31.00
2018-07-01T15:59:28.431Z,30.90
2018-07-01T16:01:32.998Z,30.20
2018-07-01T16:03:37.594Z,30.40
2018-07-01T16:05:41.826Z,30.10
2018-07-01T16:07:46.649Z,29.60
2018-07-01T16:09:51.886Z,29.50
2018-07-01T16:11:56.821Z,29.50
2018-07-01T16:14:01.556Z,30.50
2018-07-01T16:16:07.006Z,29.80
2018-07-01T16:18:11.621Z,29.70
2018-07-01T16:20:16.941Z,28.90
2018-07-01T16:22:21.905Z,29.00
2018-07-01T16:24:26.256Z,29.70
2018-07-01T16:26:35.986Z,30.00
2018-07-01T16:28:45.487Z,30.20
2018-07-01T16:30:49.737Z,30.40
2018-07-01T16:32:53.969Z,30.50
2018-07-01T16:34:58.281Z,30.90
2018-07-01T16:39:09.850Z,30.70
2018-07-01T16:43:18.308Z,30.30
2018-07-01T16:45:22.873Z,30.00
2018-07-01T16:47:27.505Z,30.50
2018-07-01T16:49:31.825Z,30.70
2018-07-01T16:51:36.262Z,30.10
2018-07-01T16:53:40.522Z,30.20
2018-07-01T16:55:45.099Z,30.30
2018-07-01T16:57:49.394Z,30.20
2018-07-01T16:59:53.668Z,29.90
2018-07-01T17:01:57.957Z,29.90
2018-07-01T17:04:02.181Z,29.90
2018-07-01T17:06:06.743Z,28.80
2018-07-01T17:08:11.021Z,28.70
2018-07-01T17:10:15.598Z,28.20
2018-07-01T17:12:19.864Z,27.90
2018-07-01T17:14:24.433Z,27.80
2018-07-01T17:16:29.515Z,27.70
2018-07-01T17:18:33.950Z,27.70
2018-07-01T17:20:38.471Z,27.20
2018-07-01T17:22:42.794Z,27.50
2018-07-01T17:24:47.061Z,27.70
2018-07-01T17:26:51.360Z,27.90
2018-07-01T17:28:55.681Z,28.00
2018-07-01T17:31:05.322Z,28.10
2018-07-01T17:33:15.198Z,27.70
2018-07-01T17:35:19.480Z,28.00
2018-07-01T17:37:23.869Z,28.50
2018-07-01T17:39:28.645Z,29.00
2018-07-01T17:41:32.884Z,29.10
2018-07-01T17:43:37.125Z,29.00
2018-07-01T17:45:41.490Z,28.30
2018-07-01T17:47:45.727Z,28.20
2018-07-01T17:51:54.030Z,28.20
2018-07-01T17:53:59.117Z,28.00
2018-07-01T17:56:03.828Z,27.40
2018-07-01T17:58:08.099Z,28.00
2018-07-01T18:00:12.370Z,28.40
2018-07-01T18:02:16.711Z,28.40
2018-07-01T18:04:21.002Z,27.90
2018-07-01T18:06:25.210Z,27.70
2018-07-01T18:08:29.935Z,27.40
2018-07-01T18:12:38.234Z,28.00
2018-07-01T18:14:42.800Z,27.90
2018-07-01T18:16:47.086Z,27.70
2018-07-01T18:18:51.350Z,27.60
2018-07-01T18:25:09.839Z,27.90
2018-07-01T18:27:09.609Z,27.90
2018-07-01T18:29:17.867Z,28.10
2018-07-01T18:31:18.357Z,28.10
2018-07-01T18:33:22.971Z,28.30
2018-07-01T18:35:27.197Z,28.20
2018-07-01T18:39:35.338Z,28.60
2018-07-01T18:41:39.573Z,28.20
2018-07-01T18:43:43.841Z,27.40
2018-07-01T18:47:52.011Z,27.70
2018-07-01T18:50:01.590Z,28.10
2018-07-01T18:52:05.864Z,27.70
2018-07-01T18:54:10.113Z,27.10
2018-07-01T18:56:14.372Z,27.10
2018-07-01T18:58:18.642Z,26.80
2018-07-01T19:00:23.025Z,26.90
2018-07-01T19:02:28.498Z,26.80
2018-07-01T19:04:32.770Z,27.00
2018-07-01T19:06:37.031Z,26.80
2018-07-01T19:10:45.595Z,26.10
2018-07-01T19:12:49.778Z,26.40
2018-07-01T19:14:54.052Z,26.30
2018-07-01T19:16:58.382Z,26.10
2018-07-01T19:19:03.402Z,25.40
2018-07-01T19:21:09.028Z,25.60
2018-07-01T19:23:13.281Z,25.40
2018-07-01T19:27:21.774Z,24.80
2018-07-01T19:29:26.650Z,24.90
2018-07-01T19:31:30.948Z,24.40
2018-07-01T19:33:35.574Z,24.20
2018-07-01T19:37:43.706Z,23.60
2018-07-01T19:39:48.283Z,23.20
2018-07-01T19:41:52.899Z,22.90
2018-07-01T19:43:57.162Z,22.70
2018-07-01T19:46:01.615Z,22.40
2018-07-01T19:48:06.545Z,22.00
2018-07-01T19:50:10.838Z,21.80
2018-07-01T19:52:15.047Z,21.70
2018-07-01T19:54:19.567Z,21.60
2018-07-01T19:56:23.745Z,21.60
2018-07-01T19:58:28.093Z,21.40
2018-07-01T20:00:32.587Z,21.20
2018-07-01T20:02:36.852Z,21.00
2018-07-01T20:04:41.090Z,20.90
2018-07-01T20:06:45.690Z,20.90
2018-07-01T20:08:49.857Z,20.80
2018-07-01T20:10:54.095Z,20.90
2018-07-01T20:12:58.340Z,20.80
2018-07-01T20:15:02.811Z,20.60
2018-07-01T20:17:07.489Z,20.60
2018-07-01T20:19:11.979Z,20.60
2018-07-01T20:21:16.574Z,20.70
2018-07-01T20:23:20.805Z,20.70
2018-07-01T20:25:25.104Z,20.60
2018-07-01T20:27:29.538Z,20.60
2018-07-01T20:29:34.645Z,20.50
2018-07-01T20:31:38.930Z,20.30
2018-07-01T20:33:43.335Z,20.40
2018-07-01T20:35:47.581Z,20.20
2018-07-01T20:37:51.809Z,20.10
2018-07-01T20:39:56.214Z,20.00
2018-07-01T20:42:00.385Z,19.90
2018-07-01T20:44:04.673Z,20.10
2018-07-01T20:46:09.366Z,20.10
2018-07-01T20:48:13.645Z,20.00
2018-07-01T20:50:17.934Z,19.90
2018-07-01T20:52:22.190Z,19.80
2018-07-01T20:54:26.434Z,20.10
2018-07-01T20:56:30.995Z,19.90
2018-07-01T20:58:35.594Z,19.70
2018-07-01T21:02:43.853Z,19.40
2018-07-01T21:04:48.185Z,19.50
2018-07-01T21:06:52.909Z,19.50
2018-07-01T21:08:57.165Z,19.50
2018-07-01T21:13:05.669Z,19.10
2018-07-01T21:15:09.910Z,19.20
2018-07-01T21:19:18.606Z,19.20
2018-07-01T21:21:23.103Z,19.20
2018-07-01T21:23:27.662Z,19.20
2018-07-01T21:25:31.887Z,19.20
2018-07-01T21:29:40.382Z,19.00
2018-07-01T21:31:46.330Z,19.40
2018-07-01T21:33:50.619Z,19.30
2018-07-01T21:35:55.069Z,19.10
2018-07-01T21:38:00.453Z,19.10
2018-07-01T21:40:04.906Z,19.10
2018-07-01T21:42:09.421Z,19.10
2018-07-01T21:44:13.923Z,19.20
2018-07-01T21:46:18.477Z,19.20
2018-07-01T21:48:23.365Z,19.10
2018-07-01T21:50:27.909Z,18.90
2018-07-01T21:52:32.346Z,19.10
2018-07-01T21:54:36.776Z,19.00
2018-07-01T21:56:41.266Z,18.90
2018-07-01T21:58:45.733Z,18.80
2018-07-01T22:00:50.315Z,18.80
2018-07-01T22:02:56.786Z,18.90
2018-07-01T22:05:01.394Z,18.90
2018-07-01T22:07:05.901Z,19.00
2018-07-01T22:09:10.364Z,18.90
2018-07-01T22:11:52.938Z,18.70
2018-07-01T22:14:19.770Z,19.00
2018-07-01T22:16:24.013Z,18.90
2018-07-01T22:18:28.225Z,19.00
2018-07-01T22:20:33.157Z,18.70
2018-07-01T22:22:37.630Z,18.80
2018-07-01T22:24:42.478Z,18.90
2018-07-01T22:26:46.887Z,18.90
2018-07-01T22:28:51.441Z,18.90
2018-07-01T22:30:55.599Z,18.60
2018-07-01T22:32:59.846Z,18.70
2018-07-01T22:35:04.290Z,18.50
2018-07-01T22:37:08.923Z,18.30
2018-07-01T22:39:14.620Z,18.40
2018-07-01T22:41:19.065Z,18.40
2018-07-01T22:43:23.498Z,18.40
2018-07-01T22:45:28.008Z,18.40
2018-07-01T22:47:32.688Z,18.40
2018-07-01T22:49:37.111Z,18.40
2018-07-01T22:51:41.693Z,18.30
2018-07-01T22:53:46.498Z,18.20
2018-07-01T22:55:50.945Z,18.40
2018-07-01T22:57:55.401Z,18.20
2018-07-01T22:59:59.854Z,18.00
2018-07-01T23:03:15.933Z,17.70
2018-07-01T23:05:20.397Z,17.60
2018-07-01T23:07:24.837Z,17.60
2018-07-01T23:09:29.355Z,17.70
2018-07-01T23:11:33.948Z,17.50
2018-07-01T23:13:38.718Z,17.70
2018-07-01T23:15:42.880Z,17.70
2018-07-01T23:17:47.384Z,17.90
2018-07-01T23:19:51.880Z,17.80
2018-07-01T23:21:56.465Z,17.70
2018-07-01T23:24:00.858Z,17.70
2018-07-01T23:26:06.137Z,17.70
2018-07-01T23:28:10.667Z,17.70
2018-07-01T23:30:15.928Z,17.60
2018-07-01T23:32:20.722Z,17.70
2018-07-01T23:34:25.154Z,17.70
2018-07-01T23:36:29.630Z,17.50
2018-07-01T23:38:34.150Z,17.50
2018-07-01T23:40:38.638Z,17.50
2018-07-01T23:42:43.453Z,17.10
2018-07-01T23:44:48.011Z,16.90
2018-07-01T23:46:52.142Z,17.00
2018-07-01T23:48:56.650Z,17.10
2018-07-01T23:51:01.284Z,17.20
2018-07-01T23:53:05.997Z,17.10
2018-07-01T23:55:11.211Z,17.10
2018-07-01T23:57:16.106Z,17.10
2018-07-01T23:59:20.557Z,17.10
